Terminal Aerodrome Forecast
Issued by NWS Sterling, VA

Current Version | Previous Version | Graphics & Text | Print | Product List | Glossary On
Versions: 1 2 3 4 5 6 7 8 9 10 11 12 13 14 15 16 17 18 19 20 21 22
000
FTUS41 KLWX 241502 AAA
TAFIAD
TAF AMD
KIAD 241502Z 2415/2518 30013G22KT P6SM FEW150
     FM250000 31006KT P6SM OVC150
     FM251700 19004KT 6SM -RA OVC050=

USA.gov is the U.S. government's official web portal to all federal, state and local government web resources and services.